Time;durP1;ratioP1;P1;durP2;ratioP2;P2;SDS_P1;SDS_P2;PMS_P1;PMS_P2;Temp;Humidity;BMP_temperature;BMP_pressure;BME280_temperature;BME280_humidity;BME280_pressure;Samples;Min_cycle;Max_cycle;Signal;HPM_P1;HPM_P2
2022/03/10 00:01:21;;;;;;;7.63;2.23;;;11.60;99.90;;;;;;5013602;28;20185;-62
2022/03/10 00:03:47;;;;;;;6.00;2.40;;;11.50;99.90;;;;;;5032178;28;20667;-62
2022/03/10 00:06:13;;;;;;;5.93;2.17;;;11.50;99.90;;;;;;5031507;28;20174;-62
2022/03/10 00:08:38;;;;;;;9.27;2.67;;;11.60;99.90;;;;;;5030673;28;20181;-61
2022/03/10 00:11:04;;;;;;;7.93;2.27;;;11.50;99.90;;;;;;5030209;28;20215;-62
2022/03/10 00:13:31;;;;;;;7.30;2.83;;;11.60;99.90;;;;;;5029426;28;20701;-62
2022/03/10 00:15:59;;;;;;;11.57;2.23;;;11.60;99.90;;;;;;5031973;28;20265;-62
2022/03/10 00:18:25;;;;;;;12.03;2.23;;;11.60;99.90;;;;;;5012327;28;20261;-61
2022/03/10 00:20:51;;;;;;;10.83;2.33;;;11.60;99.90;;;;;;5030418;28;20227;-61
2022/03/10 00:23:17;;;;;;;11.70;2.27;;;11.60;99.90;;;;;;5028882;28;20174;-62
2022/03/10 00:25:43;;;;;;;6.83;1.83;;;11.70;99.90;;;;;;5013891;28;20182;-62
2022/03/10 00:28:09;;;;;;;11.53;2.10;;;11.70;99.90;;;;;;5032215;28;20185;-61
2022/03/10 00:30:35;;;;;;;6.70;2.00;;;11.70;99.90;;;;;;5032082;28;20213;-61
2022/03/10 00:33:00;;;;;;;10.73;2.17;;;11.60;99.90;;;;;;5032336;28;20173;-61
2022/03/10 00:35:26;;;;;;;9.23;2.50;;;11.60;99.90;;;;;;5031363;28;20178;-61
2022/03/10 00:37:53;;;;;;;7.37;2.07;;;11.70;99.90;;;;;;5030974;28;20518;-62
2022/03/10 00:40:20;;;;;;;5.33;2.13;;;11.60;99.90;;;;;;5031908;28;20367;-61
2022/03/10 00:42:46;;;;;;;6.73;2.23;;;11.70;99.90;;;;;;5029451;28;20178;-61
2022/03/10 00:45:14;;;;;;;12.30;2.00;;;11.60;99.90;;;;;;5031159;28;20546;-62
2022/03/10 00:47:40;;;;;;;5.73;1.83;;;11.70;99.90;;;;;;5030484;28;20170;-62
2022/03/10 00:50:07;;;;;;;8.30;1.73;;;11.60;99.90;;;;;;5031301;28;20224;-62
2022/03/10 00:52:39;;;;;;;6.77;2.07;;;11.60;99.90;;;;;;5030745;28;20186;-62
2022/03/10 00:55:05;;;;;;;5.70;1.80;;;11.60;99.90;;;;;;5029721;28;20200;-62
2022/03/10 00:57:31;;;;;;;8.70;2.10;;;11.60;99.90;;;;;;5030422;28;20181;-61
2022/03/10 00:59:57;;;;;;;8.40;2.07;;;11.70;99.90;;;;;;5029127;28;20267;-61
2022/03/10 01:02:22;;;;;;;6.43;1.93;;;11.70;99.90;;;;;;5031352;28;20181;-64
2022/03/10 01:04:48;;;;;;;7.00;1.83;;;11.70;99.90;;;;;;5029945;28;20182;-62
2022/03/10 01:07:14;;;;;;;7.10;1.83;;;11.70;99.90;;;;;;5029993;28;20212;-62
2022/03/10 01:09:39;;;;;;;10.70;2.03;;;11.60;99.90;;;;;;5031271;28;20182;-62
2022/03/10 01:12:06;;;;;;;8.90;2.20;;;11.50;99.90;;;;;;5030129;28;20174;-63
2022/03/10 01:14:32;;;;;;;9.30;1.97;;;11.40;99.90;;;;;;5030827;28;20209;-62
2022/03/10 01:16:58;;;;;;;7.07;1.70;;;11.40;99.90;;;;;;5031247;28;20629;-62
2022/03/10 01:19:23;;;;;;;7.10;1.87;;;11.40;99.90;;;;;;5029906;28;20221;-60
2022/03/10 01:21:49;;;;;;;6.10;1.90;;;11.40;99.90;;;;;;5031024;28;20178;-60
2022/03/10 01:24:15;;;;;;;7.97;2.20;;;11.40;99.90;;;;;;5030227;28;20231;-61
2022/03/10 01:26:41;;;;;;;8.73;2.03;;;11.40;99.90;;;;;;5029677;28;20300;-61
2022/03/10 01:29:07;;;;;;;9.33;1.80;;;11.30;99.90;;;;;;5029780;28;20198;-61
2022/03/10 01:31:32;;;;;;;5.70;1.77;;;11.30;99.90;;;;;;5030662;28;20209;-61
2022/03/10 01:33:59;;;;;;;10.53;3.50;;;11.30;99.90;;;;;;5031116;28;20166;-63
2022/03/10 01:36:25;;;;;;;10.73;2.07;;;11.30;99.90;;;;;;5031008;28;20585;-62
2022/03/10 01:38:51;;;;;;;6.57;1.73;;;11.30;99.90;;;;;;5030688;28;20233;-62
2022/03/10 01:41:17;;;;;;;7.80;1.60;;;11.30;99.90;;;;;;5030802;28;20670;-62
2022/03/10 01:44:00;;;;;;;7.57;1.70;;;11.30;99.90;;;;;;5030323;28;20193;-62
2022/03/10 01:46:26;;;;;;;6.07;1.90;;;11.30;99.90;;;;;;5030574;28;20181;-62
2022/03/10 01:48:53;;;;;;;5.57;1.60;;;11.30;99.90;;;;;;5030098;28;20716;-62
2022/03/10 01:51:19;;;;;;;9.63;1.90;;;11.30;99.90;;;;;;5030222;28;20188;-62
2022/03/10 01:53:47;;;;;;;8.77;1.87;;;11.30;99.90;;;;;;5029227;28;20177;-62
2022/03/10 01:56:13;;;;;;;6.23;1.87;;;11.30;99.90;;;;;;5029030;28;20239;-62
2022/03/10 01:58:39;;;;;;;7.20;2.27;;;11.30;99.90;;;;;;5028811;28;20178;-62
2022/03/10 02:01:05;;;;;;;6.93;1.83;;;11.20;99.90;;;;;;5029143;28;20185;-63
2022/03/10 02:03:30;;;;;;;6.13;1.83;;;11.20;99.90;;;;;;5030222;28;20196;-62
2022/03/10 02:05:57;;;;;;;10.13;1.93;;;11.20;99.90;;;;;;5029460;28;20174;-63
2022/03/10 02:11:07;;;;;;;6.47;1.83;;;11.20;99.90;;;;;;5028958;28;20260;-63
2022/03/10 02:13:32;;;;;;;6.77;1.67;;;11.20;99.90;;;;;;5028667;28;20253;-63
2022/03/10 02:18:42;;;;;;;6.20;1.90;;;11.20;99.90;;;;;;5022878;28;20224;-63
2022/03/10 02:21:08;;;;;;;9.57;2.20;;;11.20;99.90;;;;;;5029944;28;20194;-62
2022/03/10 02:23:33;;;;;;;5.73;2.00;;;11.20;99.90;;;;;;5029789;28;20178;-62
2022/03/10 02:25:59;;;;;;;11.43;2.40;;;11.20;99.90;;;;;;5030666;28;20632;-62
2022/03/10 02:28:26;;;;;;;3.20;1.60;;;11.20;99.90;;;;;;5030299;28;20174;-62
2022/03/10 02:30:52;;;;;;;14.37;2.60;;;11.30;99.90;;;;;;5029599;28;20256;-62
2022/03/10 02:33:17;;;;;;;10.93;2.40;;;11.30;99.90;;;;;;5030074;28;20273;-62
2022/03/10 02:35:43;;;;;;;10.20;2.67;;;11.20;99.90;;;;;;5029997;28;20189;-62
2022/03/10 02:38:08;;;;;;;9.70;2.20;;;11.30;99.90;;;;;;5028999;28;20194;-62
2022/03/10 02:40:34;;;;;;;8.20;2.30;;;11.30;99.90;;;;;;5029750;28;20213;-62
2022/03/10 02:43:00;;;;;;;8.77;2.10;;;11.30;99.90;;;;;;5029803;28;20188;-63
2022/03/10 02:45:26;;;;;;;8.40;2.43;;;11.30;99.90;;;;;;5029465;28;20204;-62
2022/03/10 02:47:52;;;;;;;10.77;2.10;;;11.30;99.90;;;;;;5028734;28;20729;-62
2022/03/10 02:50:18;;;;;;;7.13;2.17;;;11.30;99.90;;;;;;5029477;28;20230;-61
2022/03/10 02:52:44;;;;;;;8.97;1.80;;;11.30;99.90;;;;;;5028278;28;20617;-62
2022/03/10 02:55:10;;;;;;;8.10;2.00;;;11.30;99.90;;;;;;5029312;28;20645;-62
2022/03/10 02:57:37;;;;;;;9.43;2.00;;;11.30;99.90;;;;;;5028770;28;20178;-62
2022/03/10 03:00:05;;;;;;;5.90;1.70;;;11.40;99.90;;;;;;5029754;28;20209;-62
2022/03/10 03:02:31;;;;;;;11.77;1.93;;;11.40;99.90;;;;;;5029845;28;20560;-62
2022/03/10 03:04:57;;;;;;;9.60;2.13;;;11.40;99.90;;;;;;5029305;28;20174;-62
2022/03/10 03:07:24;;;;;;;4.30;1.90;;;11.40;99.90;;;;;;5029633;28;20185;-63
2022/03/10 03:09:49;;;;;;;9.33;2.27;;;11.40;99.90;;;;;;5031419;28;20178;-60
2022/03/10 03:12:16;;;;;;;9.13;2.00;;;11.40;99.90;;;;;;5033008;28;20174;-60
2022/03/10 03:14:41;;;;;;;7.07;1.97;;;11.40;99.90;;;;;;5033036;28;20178;-60
2022/03/10 03:17:07;;;;;;;9.67;1.70;;;11.40;99.90;;;;;;5033482;28;20235;-61
2022/03/10 03:19:33;;;;;;;9.43;2.03;;;11.40;99.90;;;;;;5032926;28;20309;-65
2022/03/10 03:21:59;;;;;;;6.47;1.70;;;11.40;99.90;;;;;;5015771;28;20184;-65
2022/03/10 03:24:24;;;;;;;11.27;2.87;;;11.40;99.90;;;;;;5032950;28;20601;-66
2022/03/10 03:26:50;;;;;;;6.97;2.00;;;11.40;99.90;;;;;;5032629;28;20232;-66
2022/03/10 03:29:16;;;;;;;9.63;2.20;;;11.50;99.90;;;;;;5031209;28;20174;-66
2022/03/10 03:31:42;;;;;;;8.67;2.20;;;11.40;99.90;;;;;;5029982;28;20688;-66
2022/03/10 03:34:11;;;;;;;9.83;2.00;;;11.40;99.90;;;;;;5031394;28;20177;-66
2022/03/10 03:36:41;;;;;;;5.87;1.83;;;11.40;99.90;;;;;;5031565;28;20178;-66
2022/03/10 03:39:08;;;;;;;9.23;2.20;;;11.40;99.90;;;;;;5030868;28;20717;-66
2022/03/10 03:41:34;;;;;;;10.17;1.90;;;11.40;99.90;;;;;;5032533;28;20273;-65
2022/03/10 03:44:00;;;;;;;8.20;2.30;;;11.40;99.90;;;;;;5031978;28;20174;-66
2022/03/10 03:46:26;;;;;;;6.23;2.03;;;11.40;99.90;;;;;;5032468;28;20177;-66
2022/03/10 03:48:52;;;;;;;4.80;1.67;;;11.40;99.90;;;;;;5032833;28;20209;-66
2022/03/10 03:51:18;;;;;;;9.07;2.40;;;11.40;99.90;;;;;;5014713;28;20564;-66
2022/03/10 03:53:43;;;;;;;10.43;2.30;;;11.30;99.90;;;;;;5032878;28;20178;-65
2022/03/10 03:56:09;;;;;;;9.30;2.40;;;11.30;99.90;;;;;;5032814;28;20273;-65
2022/03/10 03:58:34;;;;;;;8.60;2.47;;;11.30;99.90;;;;;;5031742;28;20193;-66
2022/03/10 04:01:00;;;;;;;10.07;2.30;;;11.30;99.90;;;;;;5030231;28;20182;-66
2022/03/10 04:03:26;;;;;;;13.60;2.70;;;11.20;99.90;;;;;;5030718;28;20580;-65
2022/03/10 04:05:51;;;;;;;10.03;2.43;;;11.30;99.90;;;;;;5032283;28;20170;-65
2022/03/10 04:08:17;;;;;;;14.20;2.87;;;11.20;99.90;;;;;;5032388;28;20186;-66
2022/03/10 04:10:43;;;;;;;9.70;2.53;;;11.20;99.90;;;;;;5032377;28;20189;-66
2022/03/10 04:13:09;;;;;;;9.20;2.40;;;11.20;99.90;;;;;;5032458;28;20197;-66
2022/03/10 04:15:35;;;;;;;8.80;2.57;;;11.20;99.90;;;;;;5032229;28;20528;-66
2022/03/10 04:18:01;;;;;;;6.73;2.40;;;11.20;99.90;;;;;;5031039;28;20182;-66
2022/03/10 04:20:27;;;;;;;14.27;2.93;;;11.20;99.90;;;;;;5032061;28;20738;-66
2022/03/10 04:22:53;;;;;;;11.63;3.00;;;11.20;99.90;;;;;;5030272;28;20194;-66
2022/03/10 04:25:19;;;;;;;9.60;2.97;;;11.20;99.90;;;;;;5030702;28;20644;-66
2022/03/10 04:27:44;;;;;;;12.23;2.60;;;11.20;99.90;;;;;;5030179;28;20655;-66
2022/03/10 04:30:11;;;;;;;9.40;3.30;;;11.20;99.90;;;;;;5030701;28;20174;-66
2022/03/10 04:32:44;;;;;;;11.67;2.97;;;11.20;99.90;;;;;;5030225;28;20196;-66
2022/03/10 04:35:12;;;;;;;11.40;2.57;;;11.20;99.90;;;;;;5031988;28;20566;-66
2022/03/10 04:37:38;;;;;;;7.03;2.60;;;11.10;99.90;;;;;;5031569;28;20577;-66
2022/03/10 04:40:06;;;;;;;10.23;3.00;;;11.20;99.90;;;;;;5030294;28;20209;-65
2022/03/10 04:42:36;;;;;;;10.80;2.93;;;11.20;99.90;;;;;;5013756;28;20178;-66
2022/03/10 04:45:03;;;;;;;9.00;3.13;;;11.10;99.90;;;;;;5031846;28;20204;-66
2022/03/10 04:47:29;;;;;;;8.40;2.60;;;11.10;99.90;;;;;;5031022;28;20181;-65
2022/03/10 04:49:56;;;;;;;10.30;2.67;;;11.10;99.90;;;;;;5031563;28;20222;-66
2022/03/10 04:52:24;;;;;;;10.67;3.33;;;11.10;99.90;;;;;;5031035;28;20170;-66
2022/03/10 04:54:50;;;;;;;12.80;3.17;;;11.10;99.90;;;;;;5031376;28;20185;-66
2022/03/10 04:57:15;;;;;;;11.17;2.87;;;11.10;99.90;;;;;;5031679;28;20174;-66
2022/03/10 04:59:41;;;;;;;17.53;3.23;;;11.00;99.90;;;;;;5029657;28;20765;-66
2022/03/10 05:02:06;;;;;;;10.33;2.97;;;11.00;99.90;;;;;;5031323;28;20170;-66
2022/03/10 05:04:32;;;;;;;9.07;3.13;;;11.00;99.90;;;;;;5031564;28;20185;-66
2022/03/10 05:06:58;;;;;;;10.87;3.30;;;11.00;99.90;;;;;;5031517;28;20177;-66
2022/03/10 05:09:23;;;;;;;14.20;3.30;;;11.00;99.90;;;;;;5031213;28;20193;-66
2022/03/10 05:11:49;;;;;;;8.37;2.77;;;10.90;99.90;;;;;;5031144;28;20216;-67
2022/03/10 05:14:14;;;;;;;11.20;2.67;;;11.00;99.90;;;;;;5030941;28;20209;-66
2022/03/10 05:16:40;;;;;;;10.13;2.77;;;10.90;99.90;;;;;;5031138;28;20178;-66
2022/03/10 05:19:06;;;;;;;8.97;2.37;;;10.90;99.90;;;;;;5030706;28;20730;-66
2022/03/10 05:21:32;;;;;;;8.90;3.10;;;10.90;99.90;;;;;;5030768;28;20671;-62
2022/03/10 05:23:57;;;;;;;9.03;2.87;;;10.90;99.90;;;;;;5029683;28;20200;-62
2022/03/10 05:26:23;;;;;;;13.40;3.63;;;10.90;99.90;;;;;;5030654;28;20601;-67
2022/03/10 05:28:49;;;;;;;13.20;3.20;;;10.90;99.90;;;;;;5030825;28;20169;-66
2022/03/10 05:31:14;;;;;;;8.30;2.50;;;10.90;99.90;;;;;;5030983;28;20178;-67
2022/03/10 05:33:40;;;;;;;11.20;3.00;;;10.90;99.90;;;;;;5029983;28;20185;-66
2022/03/10 05:36:06;;;;;;;8.87;2.50;;;10.90;99.90;;;;;;5031121;28;20209;-67
2022/03/10 05:38:32;;;;;;;10.70;2.80;;;10.90;99.90;;;;;;5030106;28;20205;-67
2022/03/10 05:40:59;;;;;;;14.27;2.83;;;10.90;99.90;;;;;;5030100;28;20579;-67
2022/03/10 05:43:25;;;;;;;11.97;3.00;;;10.90;99.90;;;;;;5031005;28;20178;-67
2022/03/10 05:45:51;;;;;;;9.50;2.93;;;10.90;99.90;;;;;;5030267;28;20184;-65
2022/03/10 05:48:17;;;;;;;7.17;2.80;;;10.90;99.90;;;;;;5030574;28;20181;-65
2022/03/10 05:50:43;;;;;;;9.63;2.97;;;10.90;99.90;;;;;;5030511;28;20283;-65
2022/03/10 05:53:09;;;;;;;16.67;2.70;;;10.90;99.90;;;;;;5030321;28;20190;-65
2022/03/10 05:55:34;;;;;;;9.43;3.03;;;10.90;99.90;;;;;;5029747;28;20198;-66
2022/03/10 05:58:00;;;;;;;8.27;2.60;;;10.90;99.90;;;;;;5028330;28;20182;-66
2022/03/10 06:00:26;;;;;;;14.07;2.63;;;10.80;99.90;;;;;;5030213;28;20205;-66
2022/03/10 06:02:51;;;;;;;12.13;2.33;;;10.80;99.90;;;;;;5030551;28;20166;-66
2022/03/10 06:05:17;;;;;;;12.77;2.80;;;10.90;99.90;;;;;;5029582;28;20177;-67
2022/03/10 06:07:43;;;;;;;7.37;2.20;;;10.80;99.90;;;;;;5029880;28;20256;-66
2022/03/10 06:10:10;;;;;;;14.40;2.63;;;10.80;99.90;;;;;;5030142;28;20265;-67
2022/03/10 06:12:36;;;;;;;16.93;2.83;;;10.90;99.90;;;;;;5029951;28;20185;-67
2022/03/10 06:15:07;;;;;;;10.33;2.53;;;10.90;99.90;;;;;;5026082;28;20513;-67
2022/03/10 06:17:33;;;;;;;9.33;1.87;;;10.90;99.90;;;;;;5024221;28;20178;-67
2022/03/10 06:19:59;;;;;;;13.20;2.20;;;10.90;99.90;;;;;;5030050;28;20205;-66
2022/03/10 06:22:29;;;;;;;7.30;1.93;;;10.90;99.90;;;;;;5030205;28;20223;-67
2022/03/10 06:24:55;;;;;;;10.23;2.07;;;10.90;99.90;;;;;;5029674;28;20196;-67
2022/03/10 06:27:22;;;;;;;7.73;1.73;;;10.90;99.90;;;;;;5030431;28;20169;-66
2022/03/10 06:29:49;;;;;;;6.23;1.70;;;10.90;99.90;;;;;;5030518;28;20170;-66
2022/03/10 06:32:17;;;;;;;11.33;1.90;;;10.90;99.90;;;;;;5030184;28;20197;-66
2022/03/10 06:34:43;;;;;;;10.47;2.13;;;10.90;99.90;;;;;;5029429;28;20200;-66
2022/03/10 06:37:09;;;;;;;5.03;1.33;;;10.90;99.90;;;;;;5028753;28;20178;-67
2022/03/10 06:39:35;;;;;;;8.57;1.90;;;10.90;99.90;;;;;;5026936;28;20214;-67
2022/03/10 06:42:05;;;;;;;12.30;1.87;;;10.90;99.90;;;;;;5027494;28;20727;-66
2022/03/10 06:44:31;;;;;;;5.60;1.27;;;10.90;99.90;;;;;;5029734;28;20200;-66
2022/03/10 06:46:57;;;;;;;7.40;1.70;;;10.90;99.90;;;;;;5031443;28;20224;-66
2022/03/10 06:49:23;;;;;;;13.00;1.63;;;10.90;99.90;;;;;;5033255;28;20700;-66
2022/03/10 06:51:49;;;;;;;9.20;1.70;;;10.90;99.90;;;;;;5032744;28;20245;-66
2022/03/10 06:54:16;;;;;;;13.13;1.90;;;10.90;99.90;;;;;;5015580;28;20239;-65
2022/03/10 06:56:42;;;;;;;8.03;1.60;;;10.90;99.90;;;;;;5033447;28;20368;-64
2022/03/10 06:59:07;;;;;;;9.00;1.63;;;10.90;99.90;;;;;;5033774;28;20300;-65
2022/03/10 07:01:33;;;;;;;8.50;1.60;;;10.90;99.90;;;;;;5031788;28;20189;-65
2022/03/10 07:03:59;;;;;;;5.90;1.50;;;10.90;99.90;;;;;;5033281;28;20174;-65
2022/03/10 07:06:26;;;;;;;10.83;2.23;;;10.90;99.90;;;;;;5033125;28;20292;-65
2022/03/10 07:08:52;;;;;;;9.97;1.97;;;10.90;99.90;;;;;;5033357;28;20178;-64
2022/03/10 07:11:18;;;;;;;10.60;2.00;;;10.90;99.90;;;;;;5033255;28;20174;-63
2022/03/10 07:13:45;;;;;;;10.17;1.57;;;11.00;99.90;;;;;;5033108;28;20648;-64
2022/03/10 07:16:11;;;;;;;10.20;2.00;;;11.00;99.90;;;;;;5033325;28;20169;-64
2022/03/10 07:18:37;;;;;;;13.63;2.17;;;11.00;99.90;;;;;;5033098;28;20181;-64
2022/03/10 07:21:04;;;;;;;9.10;1.53;;;11.00;99.90;;;;;;5032735;28;20213;-65
2022/03/10 07:23:30;;;;;;;10.77;1.87;;;11.00;99.90;;;;;;5031783;28;20315;-65
2022/03/10 07:25:56;;;;;;;10.57;1.87;;;11.00;99.90;;;;;;5032860;28;20173;-66
2022/03/10 07:28:22;;;;;;;9.93;1.77;;;11.00;99.90;;;;;;5032985;28;20193;-64
2022/03/10 07:30:48;;;;;;;14.90;2.00;;;11.00;99.90;;;;;;5032981;28;20552;-63
2022/03/10 07:33:13;;;;;;;10.07;1.90;;;11.00;99.90;;;;;;5031561;28;20260;-62
2022/03/10 07:35:39;;;;;;;12.57;1.83;;;11.00;99.90;;;;;;5031602;28;20563;-62
2022/03/10 07:38:05;;;;;;;10.87;1.90;;;11.00;99.90;;;;;;5012287;28;20170;-62
2022/03/10 07:40:31;;;;;;;13.43;2.43;;;11.00;99.90;;;;;;5031364;28;20572;-63
2022/03/10 07:42:57;;;;;;;14.27;1.60;;;11.00;99.90;;;;;;5014971;28;20225;-63
2022/03/10 07:45:23;;;;;;;8.80;2.03;;;11.00;99.90;;;;;;5031435;28;20190;-62
2022/03/10 07:47:48;;;;;;;17.00;2.70;;;11.00;99.90;;;;;;5032556;28;20201;-63
2022/03/10 07:50:14;;;;;;;15.77;2.37;;;11.00;99.90;;;;;;5030398;28;20449;-62
2022/03/10 07:52:41;;;;;;;11.87;1.80;;;11.00;99.90;;;;;;5031894;28;20204;-62
2022/03/10 07:55:08;;;;;;;9.23;1.37;;;11.00;99.90;;;;;;5031529;28;20277;-62
2022/03/10 07:57:35;;;;;;;7.23;1.43;;;10.90;99.90;;;;;;5029842;28;20174;-62
2022/03/10 08:00:04;;;;;;;8.13;1.30;;;11.00;99.90;;;;;;5031150;28;20209;-63
2022/03/10 08:02:30;;;;;;;6.40;0.90;;;11.00;99.90;;;;;;5031606;28;20182;-61
2022/03/10 08:04:55;;;;;;;9.90;0.90;;;11.00;99.90;;;;;;5029751;28;20182;-60
2022/03/10 08:07:22;;;;;;;5.27;0.90;;;11.00;99.90;;;;;;5031301;28;20178;-60
2022/03/10 08:09:47;;;;;;;6.60;0.80;;;11.10;99.90;;;;;;5032366;28;20186;-60
2022/03/10 08:12:13;;;;;;;3.87;0.93;;;11.10;99.90;;;;;;5032087;28;20657;-62
2022/03/10 08:14:39;;;;;;;11.00;1.07;;;11.00;99.90;;;;;;5031011;28;20664;-61
2022/03/10 08:17:05;;;;;;;4.00;0.60;;;11.00;99.90;;;;;;5031459;28;20728;-60
2022/03/10 08:19:31;;;;;;;7.70;0.63;;;11.00;99.90;;;;;;5031728;28;20256;-61
2022/03/10 08:21:58;;;;;;;5.77;1.10;;;11.00;99.90;;;;;;5030315;28;20672;-60
2022/03/10 08:24:23;;;;;;;4.37;0.70;;;10.90;99.90;;;;;;5043176;28;20173;-62
2022/03/10 08:26:49;;;;;;;4.10;0.70;;;10.80;99.90;;;;;;5035322;28;20231;-60
2022/03/10 08:29:14;;;;;;;6.40;0.73;;;10.80;99.90;;;;;;5032255;28;20170;-60
2022/03/10 08:31:41;;;;;;;6.37;1.00;;;10.80;99.90;;;;;;5031810;28;20253;-64
2022/03/10 08:34:07;;;;;;;5.77;0.60;;;10.70;99.90;;;;;;5030595;28;20178;-64
2022/03/10 08:36:32;;;;;;;3.20;0.50;;;10.80;99.90;;;;;;5031477;28;20182;-63
2022/03/10 08:38:58;;;;;;;5.63;0.73;;;10.80;99.90;;;;;;5029472;28;20644;-63
2022/03/10 08:41:24;;;;;;;6.00;0.80;;;9.10;99.90;;;;;;5013063;28;20182;-64
2022/03/10 08:43:49;;;;;;;6.07;0.70;;;11.00;99.90;;;;;;5028699;28;20173;-67
2022/03/10 08:46:15;;;;;;;9.43;1.07;;;11.00;99.90;;;;;;5029293;28;20710;-67
2022/03/10 08:48:44;;;;;;;2.47;0.70;;;11.00;99.90;;;;;;5029886;28;20173;-67
2022/03/10 08:51:09;;;;;;;5.53;0.60;;;11.00;99.90;;;;;;5029303;28;20225;-67
2022/03/10 08:53:36;;;;;;;5.70;0.70;;;10.90;99.90;;;;;;5030339;28;20540;-68
2022/03/10 08:56:02;;;;;;;2.37;0.30;;;11.00;99.90;;;;;;5030166;28;20181;-62
2022/03/10 08:58:28;;;;;;;6.47;0.87;;;11.20;99.90;;;;;;5029230;28;20174;-63
2022/03/10 09:00:54;;;;;;;6.43;0.73;;;13.10;99.90;;;;;;5030184;28;20220;-63
2022/03/10 09:03:20;;;;;;;2.73;0.40;;;14.50;99.90;;;;;;5029424;28;20525;-62
2022/03/10 09:05:46;;;;;;;2.97;0.67;;;14.10;99.90;;;;;;5029435;28;20617;-63
2022/03/10 09:08:11;;;;;;;3.53;0.70;;;13.70;99.90;;;;;;5030822;28;20181;-63
2022/03/10 09:10:37;;;;;;;1.33;0.60;;;13.90;99.90;;;;;;5012547;28;20178;-63
2022/03/10 09:13:04;;;;;;;3.60;0.60;;;13.50;99.90;;;;;;5030420;28;20239;-63
2022/03/10 09:15:30;;;;;;;6.27;0.83;;;14.40;99.90;;;;;;5030641;28;20268;-59
2022/03/10 09:17:56;;;;;;;8.10;0.63;;;12.90;99.90;;;;;;5030711;28;20181;-60
2022/03/10 09:20:22;;;;;;;4.83;0.90;;;12.70;99.90;;;;;;5030300;28;20222;-59
2022/03/10 09:22:48;;;;;;;1.33;0.43;;;12.90;99.90;;;;;;5029857;28;20170;-59
2022/03/10 09:25:15;;;;;;;5.60;0.70;;;13.40;99.90;;;;;;5027441;28;20699;-64
2022/03/10 09:27:41;;;;;;;7.45;0.80;;;15.30;99.90;;;;;;5029952;28;20641;-70
2022/03/10 09:30:09;;;;;;;7.90;1.10;;;16.00;99.90;;;;;;5029776;28;20532;-62
2022/03/10 09:32:40;;;;;;;6.22;0.75;;;16.10;99.90;;;;;;5030240;28;20170;-59
2022/03/10 09:35:08;;;;;;;16.05;1.58;;;14.80;99.90;;;;;;5030155;28;20166;-63
2022/03/10 09:37:34;;;;;;;10.88;1.17;;;14.80;99.90;;;;;;5030034;28;20201;-61
2022/03/10 09:40:00;;;;;;;3.40;0.82;;;13.60;99.90;;;;;;5030107;28;20217;-60
2022/03/10 09:42:30;;;;;;;6.10;1.00;;;12.80;99.90;;;;;;5030796;28;20170;-61
2022/03/10 09:45:01;;;;;;;8.20;0.90;;;12.80;99.90;;;;;;5029874;28;20637;-62
2022/03/10 09:47:27;;;;;;;3.13;0.60;;;14.00;99.90;;;;;;5030229;28;20201;-62
2022/03/10 09:49:54;;;;;;;7.67;1.00;;;13.20;99.90;;;;;;5029952;28;20271;-62
2022/03/10 09:52:22;;;;;;;8.37;0.93;;;12.80;99.90;;;;;;5029820;28;20170;-62
2022/03/10 09:54:48;;;;;;;4.73;0.70;;;13.30;99.90;;;;;;5030202;28;20260;-62
2022/03/10 09:57:16;;;;;;;6.95;0.93;;;13.80;99.90;;;;;;5030598;28;20273;-62
2022/03/10 09:59:56;;;;;;;5.03;1.10;;;14.70;99.90;;;;;;5028595;28;20205;-61
2022/03/10 10:02:22;;;;;;;5.47;0.80;;;15.20;99.90;;;;;;5010404;28;20388;-62
2022/03/10 10:04:48;;;;;;;5.70;0.68;;;16.10;99.90;;;;;;5022412;28;20813;-61
2022/03/10 10:07:14;;;;;;;4.80;0.60;;;15.00;99.90;;;;;;5049186;28;20218;-61
2022/03/10 10:09:47;;;;;;;4.18;0.93;;;15.70;99.90;;;;;;5049690;28;20212;-61
2022/03/10 10:12:15;;;;;;;6.03;0.90;;;17.70;99.90;;;;;;5049063;28;20199;-60
2022/03/10 10:14:43;;;;;;;5.35;0.88;;;16.90;99.90;;;;;;5049605;28;20162;-61
2022/03/10 10:17:10;;;;;;;5.30;0.80;;;17.90;99.90;;;;;;5049243;28;20176;-61
2022/03/10 10:19:37;;;;;;;6.82;0.73;;;19.60;99.90;;;;;;5050826;28;20748;-61
2022/03/10 10:22:13;;;;;;;4.95;0.85;;;20.50;99.90;;;;;;5054204;28;20207;-60
2022/03/10 10:24:39;;;;;;;2.83;0.63;;;20.40;99.90;;;;;;5053909;28;20184;-61
2022/03/10 10:27:16;;;;;;;2.88;0.52;;;18.50;99.90;;;;;;5053400;28;20252;-61
2022/03/10 10:29:45;;;;;;;6.65;0.60;;;17.90;99.90;;;;;;5053438;28;20279;-58
2022/03/10 10:32:11;;;;;;;5.03;0.52;;;16.30;99.90;;;;;;5053283;28;20169;-59
2022/03/10 10:34:37;;;;;;;2.97;0.60;;;17.10;99.90;;;;;;5053380;28;20263;-62
2022/03/10 10:37:03;;;;;;;4.80;1.15;;;18.90;99.90;;;;;;5053325;28;20181;-62
2022/03/10 10:39:28;;;;;;;4.00;0.65;;;19.30;99.90;;;;;;5053717;28;20644;-61
2022/03/10 10:41:54;;;;;;;1.42;0.45;;;18.60;99.90;;;;;;5053702;28;20186;-60
2022/03/10 10:44:23;;;;;;;4.97;0.80;;;16.70;99.90;;;;;;5053050;28;20256;-59
2022/03/10 10:46:58;;;;;;;7.57;1.10;;;14.30;99.90;;;;;;5053239;28;20590;-60
2022/03/10 10:49:24;;;;;;;5.03;0.80;;;14.00;99.90;;;;;;5053228;28;20213;-59
2022/03/10 10:51:54;;;;;;;1.77;0.40;;;13.70;99.90;;;;;;5053710;28;20575;-59
2022/03/10 10:54:20;;;;;;;5.22;1.67;;;13.10;99.90;;;;;;5053702;28;20174;-59
2022/03/10 10:56:52;;;;;;;4.10;0.45;;;13.00;99.90;;;;;;5053120;28;20181;-61
2022/03/10 10:59:38;;;;;;;3.43;0.80;;;12.90;99.90;;;;;;5027023;28;20561;-60
2022/03/10 11:02:15;;;;;;;5.57;0.77;;;12.90;99.90;;;;;;5046891;28;20259;-61
2022/03/10 11:04:46;;;;;;;4.87;0.93;;;12.40;99.90;;;;;;5033886;28;20169;-60
2022/03/10 11:07:12;;;;;;;3.58;0.63;;;13.60;99.90;;;;;;5033019;28;20253;-59
2022/03/10 11:09:39;;;;;;;5.70;0.88;;;17.00;99.90;;;;;;5032174;28;20177;-60
2022/03/10 11:12:08;;;;;;;1.38;0.60;;;18.40;99.90;;;;;;5033541;28;20174;-59
2022/03/10 11:14:34;;;;;;;2.70;0.77;;;17.60;99.90;;;;;;5032834;28;20201;-59
2022/03/10 11:17:00;;;;;;;5.35;1.00;;;16.50;99.90;;;;;;5035514;28;20556;-59
2022/03/10 11:19:31;;;;;;;3.33;0.57;;;14.80;99.90;;;;;;5053121;28;20259;-59
2022/03/10 11:22:19;;;;;;;9.00;0.95;;;13.90;99.90;;;;;;5036405;28;20260;-59
2022/03/10 11:25:18;;;;;;;2.85;0.52;;;16.60;99.90;;;;;;5052939;28;20170;-60
2022/03/10 11:27:56;;;;;;;5.75;1.50;;;15.80;99.90;;;;;;5052515;28;20684;-60
2022/03/10 11:30:32;;;;;;;3.88;0.70;;;15.10;99.90;;;;;;5051571;28;20209;-59
2022/03/10 11:33:09;;;;;;;6.40;0.93;;;14.20;99.90;;;;;;5052517;28;20651;-59
2022/03/10 11:35:40;;;;;;;4.00;0.63;;;13.80;99.90;;;;;;5052544;28;20183;-59
2022/03/10 11:38:06;;;;;;;4.43;0.60;;;13.50;99.90;;;;;;5053293;28;20177;-59
2022/03/10 11:40:44;;;;;;;5.65;0.60;;;14.10;99.90;;;;;;5052136;28;20676;-59
2022/03/10 11:43:16;;;;;;;2.80;0.60;;;13.90;99.90;;;;;;5052665;28;20173;-59
2022/03/10 11:45:41;;;;;;;2.90;0.65;;;14.20;99.90;;;;;;5052574;28;20169;-59
2022/03/10 11:48:22;;;;;;;4.68;0.85;;;16.40;99.90;;;;;;5052452;28;20169;-60
2022/03/10 11:50:49;;;;;;;8.43;1.63;;;15.10;99.90;;;;;;5052369;28;20699;-61
2022/03/10 11:53:14;;;;;;;5.88;1.35;;;15.20;99.90;;;;;;5051706;28;20238;-60
2022/03/10 11:55:46;;;;;;;8.10;1.33;;;14.80;99.90;;;;;;5052411;28;20177;-60
2022/03/10 11:58:14;;;;;;;7.55;1.20;;;17.30;99.90;;;;;;5040074;28;20186;-59
2022/03/10 12:00:43;;;;;;;5.35;0.90;;;17.70;99.90;;;;;;5028573;28;20217;-59
2022/03/10 12:03:10;;;;;;;3.58;0.85;;;17.60;99.90;;;;;;5051534;28;20177;-59
2022/03/10 12:05:56;;;;;;;9.05;1.15;;;16.80;99.90;;;;;;5032687;28;20182;-59
2022/03/10 12:08:24;;;;;;;1.60;0.45;;;18.40;99.90;;;;;;5032334;28;20185;-59
2022/03/10 12:10:50;;;;;;;9.10;0.90;;;16.30;99.90;;;;;;5014714;28;20671;-59
2022/03/10 12:13:29;;;;;;;4.10;0.90;;;17.10;99.90;;;;;;5031288;28;20223;-60
2022/03/10 12:15:56;;;;;;;2.05;0.50;;;16.50;99.90;;;;;;5038067;28;20322;-59
2022/03/10 12:18:24;;;;;;;5.53;1.15;;;17.20;99.90;;;;;;5050530;28;20521;-59
2022/03/10 12:20:55;;;;;;;3.70;0.70;;;18.30;99.90;;;;;;5050459;28;20277;-59
2022/03/10 12:23:23;;;;;;;7.45;0.93;;;18.50;99.90;;;;;;5050287;28;20659;-58
2022/03/10 12:26:05;;;;;;;3.05;0.68;;;18.30;99.90;;;;;;5050478;28;20168;-58
2022/03/10 12:28:37;;;;;;;5.85;1.00;;;17.70;99.90;;;;;;5032335;28;20201;-58
2022/03/10 12:31:21;;;;;;;7.72;0.98;;;16.70;99.90;;;;;;5050482;28;20165;-58
2022/03/10 12:33:52;;;;;;;4.75;0.93;;;18.20;99.90;;;;;;5051787;28;20173;-58
2022/03/10 12:36:34;;;;;;;6.30;0.60;;;17.20;99.90;;;;;;5052043;28;20173;-58
2022/03/10 12:39:04;;;;;;;3.38;0.75;;;14.80;99.90;;;;;;5050791;28;20196;-58
2022/03/10 12:41:38;;;;;;;3.75;0.85;;;16.10;99.90;;;;;;5050252;28;20651;-60
2022/03/10 12:44:09;;;;;;;5.50;0.70;;;15.40;99.90;;;;;;5050504;28;20202;-59
2022/03/10 12:46:37;;;;;;;3.58;0.80;;;14.30;99.90;;;;;;5051246;28;20173;-59
2022/03/10 12:49:26;;;;;;;3.65;1.05;;;14.10;99.90;;;;;;5051284;28;20230;-60